createdAt,value
2022-10-05T00:02:28.921Z,9.71
2022-10-05T00:04:59.363Z,9.69
2022-10-05T00:07:31.099Z,9.68
2022-10-05T00:10:01.306Z,9.67
2022-10-05T00:12:30.790Z,9.67
2022-10-05T00:15:02.791Z,9.66
2022-10-05T00:17:32.427Z,9.65
2022-10-05T00:20:01.636Z,9.66
2022-10-05T00:22:33.599Z,9.66
2022-10-05T00:25:12.356Z,9.66
2022-10-05T00:27:41.550Z,9.66
2022-10-05T00:30:17.879Z,9.67
2022-10-05T00:32:47.664Z,9.66
2022-10-05T00:35:18.141Z,9.67
2022-10-05T00:37:48.405Z,9.68
2022-10-05T00:40:31.553Z,9.69
2022-10-05T00:43:16.344Z,9.70
2022-10-05T00:45:51.395Z,9.71
2022-10-05T00:48:29.085Z,9.72
2022-10-05T00:51:11.744Z,9.73
2022-10-05T00:53:50.195Z,9.73
2022-10-05T00:56:39.159Z,9.75
2022-10-05T00:59:19.035Z,9.75
2022-10-05T01:01:58.728Z,9.75
2022-10-05T01:04:30.311Z,9.77
2022-10-05T01:07:11.480Z,9.76
2022-10-05T01:09:48.936Z,9.77
2022-10-05T01:12:25.194Z,9.77
2022-10-05T01:15:03.527Z,9.78
2022-10-05T01:17:41.966Z,9.78
2022-10-05T01:20:29.734Z,9.78
2022-10-05T01:23:19.940Z,9.78
2022-10-05T01:26:02.414Z,9.78
2022-10-05T01:28:39.094Z,9.78
2022-10-05T01:31:16.014Z,9.78
2022-10-05T01:33:53.060Z,9.79
2022-10-05T01:36:31.493Z,9.78
2022-10-05T01:39:10.743Z,9.78
2022-10-05T01:41:48.020Z,9.78
2022-10-05T01:44:23.392Z,9.79
2022-10-05T01:47:03.266Z,9.79
2022-10-05T01:49:39.381Z,9.79
2022-10-05T01:52:20.244Z,9.80
2022-10-05T01:55:05.661Z,9.81
2022-10-05T01:57:47.926Z,9.82
2022-10-05T02:00:20.063Z,9.83
2022-10-05T02:02:53.895Z,9.83
2022-10-05T02:05:27.588Z,9.83
2022-10-05T02:08:01.467Z,9.84
2022-10-05T02:10:36.549Z,9.85
2022-10-05T02:13:12.440Z,9.85
2022-10-05T02:15:47.257Z,9.84
2022-10-05T02:18:20.949Z,9.84
2022-10-05T02:20:53.579Z,9.84
2022-10-05T02:23:26.927Z,9.83
2022-10-05T02:25:57.828Z,9.82
2022-10-05T02:28:34.688Z,9.81
2022-10-05T02:31:25.306Z,9.79
2022-10-05T02:34:14.352Z,9.78
2022-10-05T02:36:44.003Z,9.75
2022-10-05T02:39:24.765Z,9.72
2022-10-05T02:42:04.256Z,9.71
2022-10-05T02:44:42.724Z,9.69
2022-10-05T02:47:19.435Z,9.67
2022-10-05T02:50:00.184Z,9.66
2022-10-05T02:52:38.738Z,9.63
2022-10-05T02:55:15.925Z,9.61
2022-10-05T02:57:54.292Z,9.59
2022-10-05T03:00:25.531Z,9.57
2022-10-05T03:03:03.109Z,9.53
2022-10-05T03:05:41.931Z,9.52
2022-10-05T03:08:18.353Z,9.48
2022-10-05T03:10:58.979Z,9.46
2022-10-05T03:13:34.575Z,9.43
2022-10-05T03:16:26.448Z,9.39
2022-10-05T03:19:10.271Z,9.36
2022-10-05T03:21:57.716Z,9.34
2022-10-05T03:24:46.082Z,9.31
2022-10-05T03:27:27.012Z,9.30
2022-10-05T03:30:04.149Z,9.28
2022-10-05T03:32:45.657Z,9.27
2022-10-05T03:35:24.341Z,9.27
2022-10-05T03:38:05.425Z,9.26
2022-10-05T03:40:40.391Z,9.26
2022-10-05T03:43:31.424Z,9.27
2022-10-05T03:46:07.725Z,9.27
2022-10-05T03:48:49.908Z,9.27
2022-10-05T03:51:28.223Z,9.28
2022-10-05T03:54:04.883Z,9.28
2022-10-05T03:56:40.808Z,9.29
2022-10-05T03:59:15.946Z,9.30
2022-10-05T04:01:51.007Z,9.30
2022-10-05T04:04:25.376Z,9.30
2022-10-05T04:06:59.182Z,9.32
2022-10-05T04:09:32.893Z,9.32
2022-10-05T04:12:12.015Z,9.32
2022-10-05T04:14:47.231Z,9.32
2022-10-05T04:17:19.489Z,9.31
2022-10-05T04:19:57.892Z,9.31
2022-10-05T04:22:36.646Z,9.30
2022-10-05T04:25:15.994Z,9.31
2022-10-05T04:27:52.313Z,9.31
2022-10-05T04:30:22.363Z,9.33
2022-10-05T04:32:57.297Z,9.33
2022-10-05T04:35:43.754Z,9.35
2022-10-05T04:38:32.784Z,9.39
2022-10-05T04:41:17.485Z,9.43
2022-10-05T04:43:59.993Z,9.44
2022-10-05T04:46:40.068Z,9.46
2022-10-05T04:49:32.590Z,9.49
2022-10-05T04:52:14.993Z,9.55
2022-10-05T04:54:57.793Z,9.58
2022-10-05T04:57:35.594Z,9.60
2022-10-05T05:00:14.007Z,9.63
2022-10-05T05:03:10.134Z,9.64
2022-10-05T05:06:15.239Z,9.66
2022-10-05T05:08:50.080Z,9.70
2022-10-05T05:11:31.811Z,9.72
2022-10-05T05:14:20.763Z,9.74
2022-10-05T05:16:59.071Z,9.77
2022-10-05T05:19:41.276Z,9.80
2022-10-05T05:22:21.625Z,9.85
2022-10-05T05:24:58.821Z,9.87
2022-10-05T05:27:47.996Z,9.91
2022-10-05T05:30:23.180Z,9.95
2022-10-05T05:33:18.797Z,10.00
2022-10-05T05:36:23.866Z,10.06
2022-10-05T05:39:09.415Z,10.10
2022-10-05T05:41:40.710Z,10.15
2022-10-05T05:44:21.765Z,10.19
2022-10-05T05:47:03.944Z,10.25
2022-10-05T05:49:50.992Z,10.29
2022-10-05T05:52:25.489Z,10.30
2022-10-05T05:54:59.575Z,10.37
2022-10-05T05:57:33.677Z,10.40
2022-10-05T06:00:10.673Z,10.45
2022-10-05T06:02:51.912Z,10.47
2022-10-05T06:05:32.532Z,10.53
2022-10-05T06:08:14.244Z,10.56
2022-10-05T06:10:49.724Z,10.62
2022-10-05T06:13:25.447Z,10.64
2022-10-05T06:16:01.063Z,10.70
2022-10-05T06:18:33.645Z,10.75
2022-10-05T06:21:07.984Z,10.81
2022-10-05T06:23:42.642Z,10.85
2022-10-05T06:26:22.626Z,10.87
2022-10-05T06:28:57.800Z,10.93
2022-10-05T06:31:45.513Z,10.97
2022-10-05T06:34:27.952Z,11.02
2022-10-05T06:37:02.891Z,11.07
2022-10-05T06:39:48.746Z,11.11
2022-10-05T06:42:39.074Z,11.14
2022-10-05T06:45:56.661Z,11.18
2022-10-05T06:49:15.072Z,11.24
2022-10-05T06:52:00.686Z,11.28
2022-10-05T06:54:43.985Z,11.33
2022-10-05T06:57:36.716Z,11.36
2022-10-05T07:00:17.376Z,11.40
2022-10-05T07:02:54.678Z,11.45
2022-10-05T07:05:53.213Z,11.49
2022-10-05T07:08:34.949Z,11.53
2022-10-05T07:11:13.370Z,11.56
2022-10-05T07:14:03.563Z,11.60
2022-10-05T07:16:43.054Z,11.65
2022-10-05T07:19:32.124Z,11.68
2022-10-05T07:22:21.592Z,11.74
2022-10-05T07:25:00.433Z,11.78
2022-10-05T07:27:34.282Z,11.84
2022-10-05T07:30:06.805Z,11.89
2022-10-05T07:32:46.209Z,11.95
2022-10-05T07:35:43.025Z,11.98
2022-10-05T07:38:22.187Z,12.01
2022-10-05T07:40:55.384Z,12.05
2022-10-05T07:43:51.426Z,12.09
2022-10-05T07:46:33.271Z,12.12
2022-10-05T07:49:10.758Z,12.14
2022-10-05T07:51:45.187Z,12.17
2022-10-05T07:54:26.777Z,12.19
2022-10-05T07:57:06.595Z,12.22
2022-10-05T07:59:44.213Z,12.26
2022-10-05T08:02:26.837Z,12.28
2022-10-05T08:05:02.753Z,12.33
2022-10-05T08:07:35.581Z,12.37
2022-10-05T08:10:23.035Z,12.41
2022-10-05T08:13:03.518Z,12.46
2022-10-05T08:15:39.921Z,12.50
2022-10-05T08:18:18.073Z,12.57
2022-10-05T08:20:51.163Z,12.63
2022-10-05T08:23:25.913Z,12.67
2022-10-05T08:26:12.303Z,12.71
2022-10-05T08:28:47.123Z,12.75
2022-10-05T08:31:24.012Z,12.78
2022-10-05T08:33:59.834Z,12.83
2022-10-05T08:36:54.114Z,12.88
2022-10-05T08:39:27.009Z,12.92
2022-10-05T08:42:23.288Z,12.99
2022-10-05T08:45:28.130Z,13.04
2022-10-05T08:48:24.708Z,13.12
2022-10-05T08:51:34.638Z,13.19
2022-10-05T08:54:44.225Z,13.27
2022-10-05T08:57:47.593Z,13.35
2022-10-05T09:00:19.898Z,13.40
2022-10-05T09:03:47.754Z,13.46
2022-10-05T09:07:10.941Z,13.54
2022-10-05T09:10:04.545Z,13.61
2022-10-05T09:13:18.571Z,13.72
2022-10-05T09:16:24.048Z,13.80
2022-10-05T09:19:16.814Z,13.87
2022-10-05T09:21:57.676Z,13.94
2022-10-05T09:24:42.885Z,14.00
2022-10-05T09:27:18.115Z,14.06
2022-10-05T09:30:21.433Z,14.13
2022-10-05T09:33:18.769Z,14.17
2022-10-05T09:36:17.399Z,14.22
2022-10-05T09:39:28.231Z,14.30
2022-10-05T09:42:10.286Z,14.36
2022-10-05T09:45:31.378Z,14.42
2022-10-05T09:48:37.943Z,14.49
2022-10-05T09:51:44.208Z,14.54
2022-10-05T09:54:44.238Z,14.62
2022-10-05T09:57:55.048Z,14.69
2022-10-05T10:00:34.386Z,14.75
2022-10-05T10:03:33.477Z,14.80
2022-10-05T10:06:13.816Z,14.87
2022-10-05T10:09:00.748Z,14.94
2022-10-05T10:12:00.918Z,14.98
2022-10-05T10:14:59.335Z,15.05
2022-10-05T10:18:04.342Z,15.11
2022-10-05T10:20:45.116Z,15.17
2022-10-05T10:23:59.088Z,15.23
2022-10-05T10:27:08.970Z,15.28
2022-10-05T10:30:19.904Z,15.33
2022-10-05T10:33:15.589Z,15.37
2022-10-05T10:35:54.854Z,15.40
2022-10-05T10:38:33.338Z,15.44
2022-10-05T10:41:42.139Z,15.47
2022-10-05T10:44:49.378Z,15.52
2022-10-05T10:47:47.992Z,15.57
2022-10-05T10:50:48.773Z,15.63
2022-10-05T10:53:44.616Z,15.71
2022-10-05T10:56:34.667Z,15.78
2022-10-05T10:59:44.402Z,15.83
2022-10-05T11:02:52.285Z,15.89
2022-10-05T11:05:48.858Z,15.95
2022-10-05T11:08:47.520Z,16.01
2022-10-05T11:11:37.777Z,16.06
2022-10-05T11:14:34.861Z,16.09
2022-10-05T11:17:31.728Z,16.15
2022-10-05T11:20:22.299Z,16.18
2022-10-05T11:23:05.122Z,16.23
2022-10-05T11:25:51.865Z,16.25
2022-10-05T11:28:43.834Z,16.30
2022-10-05T11:31:44.942Z,16.33
2022-10-05T11:34:58.243Z,16.37
2022-10-05T11:37:58.494Z,16.39
2022-10-05T11:40:53.416Z,16.43
2022-10-05T11:43:54.196Z,16.43
2022-10-05T11:46:29.097Z,16.46
2022-10-05T11:49:25.836Z,16.47
2022-10-05T11:52:07.844Z,16.47
2022-10-05T11:55:15.870Z,16.49
2022-10-05T11:57:50.571Z,16.49
2022-10-05T12:00:21.091Z,16.50
2022-10-05T12:03:12.456Z,16.52
2022-10-05T12:06:03.039Z,16.52
2022-10-05T12:08:41.790Z,16.53
2022-10-05T12:11:30.139Z,16.55
2022-10-05T12:14:06.925Z,16.57
2022-10-05T12:16:46.472Z,16.61
2022-10-05T12:19:22.065Z,16.63
2022-10-05T12:21:59.935Z,16.65
2022-10-05T12:24:48.046Z,16.67
2022-10-05T12:27:21.606Z,16.66
2022-10-05T12:29:57.571Z,16.68
2022-10-05T12:32:35.473Z,16.70
2022-10-05T12:35:29.727Z,16.74
2022-10-05T12:38:21.063Z,16.77
2022-10-05T12:41:00.239Z,16.82
2022-10-05T12:43:39.841Z,16.85
2022-10-05T12:46:19.225Z,16.89
2022-10-05T12:48:56.286Z,16.93
2022-10-05T12:51:36.761Z,16.97
2022-10-05T12:54:17.902Z,17.00
2022-10-05T12:56:55.528Z,17.05
2022-10-05T12:59:41.168Z,17.08
2022-10-05T13:02:24.875Z,17.14
2022-10-05T13:05:00.963Z,17.20
2022-10-05T13:07:46.864Z,17.26
2022-10-05T13:10:29.229Z,17.32
2022-10-05T13:13:21.704Z,17.36
2022-10-05T13:15:57.636Z,17.41
2022-10-05T13:18:36.359Z,17.48
2022-10-05T13:21:11.548Z,17.56
2022-10-05T13:23:49.487Z,17.64
2022-10-05T13:26:24.733Z,17.74
2022-10-05T13:29:01.720Z,17.80
2022-10-05T13:31:35.200Z,17.86
2022-10-05T13:34:24.723Z,17.91
2022-10-05T13:37:05.950Z,17.98
2022-10-05T13:39:48.245Z,18.08
2022-10-05T13:42:20.063Z,18.18
2022-10-05T13:44:55.481Z,18.27
2022-10-05T13:47:32.747Z,18.33
2022-10-05T13:50:04.906Z,18.40
2022-10-05T13:52:49.012Z,18.47
2022-10-05T13:55:34.999Z,18.49
2022-10-05T13:58:08.591Z,18.50
2022-10-05T14:00:47.502Z,18.50
2022-10-05T14:03:28.875Z,18.51
2022-10-05T14:06:00.055Z,18.55
2022-10-05T14:08:33.025Z,18.59
2022-10-05T14:11:22.601Z,18.63
2022-10-05T14:13:53.125Z,18.70
2022-10-05T14:16:25.481Z,18.74
2022-10-05T14:18:59.310Z,18.76
2022-10-05T14:21:32.248Z,18.74
2022-10-05T14:24:32.165Z,18.72
2022-10-05T14:27:21.632Z,18.63
2022-10-05T14:29:59.860Z,18.55
2022-10-05T14:32:33.274Z,18.43
2022-10-05T14:35:14.806Z,18.35
2022-10-05T14:37:52.518Z,18.26
2022-10-05T14:40:36.559Z,18.16
2022-10-05T14:43:20.065Z,18.05
2022-10-05T14:45:57.263Z,17.95
2022-10-05T14:48:30.106Z,17.84
2022-10-05T14:51:03.468Z,17.74
2022-10-05T14:53:40.580Z,17.62
2022-10-05T14:56:30.194Z,17.52
2022-10-05T14:59:22.268Z,17.40
2022-10-05T15:01:58.902Z,17.31
2022-10-05T15:04:43.576Z,17.21
2022-10-05T15:07:24.041Z,17.11
2022-10-05T15:10:11.360Z,17.03
2022-10-05T15:12:46.832Z,16.95
2022-10-05T15:15:27.615Z,16.85
2022-10-05T15:18:01.965Z,16.77
2022-10-05T15:20:43.862Z,16.69
2022-10-05T15:23:24.902Z,16.63
2022-10-05T15:26:07.957Z,16.56
2022-10-05T15:28:48.649Z,16.50
2022-10-05T15:31:27.865Z,16.43
2022-10-05T15:34:02.659Z,16.37
2022-10-05T15:36:43.141Z,16.31
2022-10-05T15:39:23.376Z,16.25
2022-10-05T15:42:03.104Z,16.17
2022-10-05T15:44:54.070Z,16.11
2022-10-05T15:47:31.703Z,16.06
2022-10-05T15:50:10.750Z,16.00
2022-10-05T15:52:49.812Z,15.93
2022-10-05T15:55:32.268Z,15.84
2022-10-05T15:58:25.393Z,15.78
2022-10-05T16:00:59.842Z,15.73
2022-10-05T16:03:40.464Z,15.68
2022-10-05T16:06:33.411Z,15.60
2022-10-05T16:09:20.565Z,15.53
2022-10-05T16:12:06.193Z,15.47
2022-10-05T16:14:46.933Z,15.43
2022-10-05T16:17:34.724Z,15.37
2022-10-05T16:20:26.165Z,15.32
2022-10-05T16:23:03.331Z,15.28
2022-10-05T16:25:46.529Z,15.23
2022-10-05T16:28:29.953Z,15.19
2022-10-05T16:31:07.477Z,15.14
2022-10-05T16:33:54.462Z,15.10
2022-10-05T16:36:40.432Z,15.04
2022-10-05T16:39:18.242Z,14.99
2022-10-05T16:41:57.216Z,14.93
2022-10-05T16:44:39.722Z,14.85
2022-10-05T16:47:36.531Z,14.78
2022-10-05T16:50:18.915Z,14.72
2022-10-05T16:52:55.878Z,14.65
2022-10-05T16:55:33.659Z,14.58
2022-10-05T16:58:13.111Z,14.50
2022-10-05T17:01:01.956Z,14.44
2022-10-05T17:03:44.120Z,14.37
2022-10-05T17:06:38.164Z,14.30
2022-10-05T17:09:38.113Z,14.21
2022-10-05T17:12:34.784Z,14.15
2022-10-05T17:15:29.851Z,14.05
2022-10-05T17:18:28.728Z,14.01
2022-10-05T17:21:08.000Z,13.93
2022-10-05T17:23:55.210Z,13.85
2022-10-05T17:26:57.284Z,13.78
2022-10-05T17:29:32.515Z,13.73
2022-10-05T17:32:33.761Z,13.68
2022-10-05T17:35:51.912Z,13.60
2022-10-05T17:38:24.118Z,13.53
2022-10-05T17:41:19.708Z,13.47
2022-10-05T17:44:19.535Z,13.40
2022-10-05T17:46:52.191Z,13.35
2022-10-05T17:49:47.922Z,13.29
2022-10-05T17:52:43.278Z,13.22
2022-10-05T17:55:32.575Z,13.17
2022-10-05T17:58:17.816Z,13.10
2022-10-05T18:01:14.475Z,13.05
2022-10-05T18:03:45.652Z,12.99
2022-10-05T18:06:41.740Z,12.93
2022-10-05T18:09:36.320Z,12.86
2022-10-05T18:12:43.195Z,12.80
2022-10-05T18:15:46.615Z,12.73
2022-10-05T18:18:54.696Z,12.64
2022-10-05T18:21:49.225Z,12.58
2022-10-05T18:24:32.471Z,12.50
2022-10-05T18:27:34.378Z,12.44
2022-10-05T18:30:17.851Z,12.36
2022-10-05T18:33:23.132Z,12.29
2022-10-05T18:36:01.955Z,12.21
2022-10-05T18:38:51.341Z,12.16
2022-10-05T18:41:34.031Z,12.09
2022-10-05T18:44:23.569Z,12.01
2022-10-05T18:47:00.435Z,11.95
2022-10-05T18:49:50.617Z,11.88
2022-10-05T18:52:29.953Z,11.82
2022-10-05T18:55:04.210Z,11.75
2022-10-05T18:58:05.643Z,11.68
2022-10-05T19:00:53.294Z,11.62
2022-10-05T19:03:30.674Z,11.56
2022-10-05T19:06:13.414Z,11.50
2022-10-05T19:08:52.173Z,11.45
2022-10-05T19:11:30.175Z,11.40
2022-10-05T19:14:12.397Z,11.32
2022-10-05T19:17:00.770Z,11.27
2022-10-05T19:19:50.308Z,11.21
2022-10-05T19:22:29.592Z,11.15
2022-10-05T19:25:11.297Z,11.09
2022-10-05T19:27:57.953Z,11.04
2022-10-05T19:30:45.420Z,10.99
2022-10-05T19:33:32.341Z,10.91
2022-10-05T19:36:25.428Z,10.86
2022-10-05T19:39:04.531Z,10.79
2022-10-05T19:41:47.739Z,10.73
2022-10-05T19:44:29.902Z,10.68
2022-10-05T19:47:06.848Z,10.63
2022-10-05T19:49:44.476Z,10.58
2022-10-05T19:52:22.257Z,10.52
2022-10-05T19:55:04.691Z,10.47
2022-10-05T19:57:38.385Z,10.43
2022-10-05T20:00:16.825Z,10.36
2022-10-05T20:02:54.008Z,10.32
2022-10-05T20:05:24.100Z,10.27
2022-10-05T20:07:53.543Z,10.23
2022-10-05T20:10:29.170Z,10.18
2022-10-05T20:13:00.350Z,10.14
2022-10-05T20:15:49.265Z,10.10
2022-10-05T20:18:56.604Z,10.04
2022-10-05T20:21:46.113Z,10.00
2022-10-05T20:24:18.461Z,9.95
2022-10-05T20:27:06.186Z,9.92
2022-10-05T20:29:37.747Z,9.87
2022-10-05T20:32:10.037Z,9.83
2022-10-05T20:34:42.753Z,9.79
2022-10-05T20:37:13.680Z,9.76
2022-10-05T20:39:43.634Z,9.72
2022-10-05T20:42:12.401Z,9.70
2022-10-05T20:44:42.088Z,9.66
2022-10-05T20:47:11.544Z,9.64
2022-10-05T20:49:42.660Z,9.61
2022-10-05T20:52:15.202Z,9.58
2022-10-05T20:57:20.907Z,9.55
2022-10-05T20:59:50.153Z,9.51
2022-10-05T21:02:20.134Z,9.49
2022-10-05T21:04:50.875Z,9.46
2022-10-05T21:07:21.111Z,9.43
2022-10-05T21:09:51.612Z,9.40
2022-10-05T21:12:20.930Z,9.37
2022-10-05T21:14:52.624Z,9.34
2022-10-05T21:17:22.028Z,9.31
2022-10-05T21:19:52.700Z,9.28
2022-10-05T21:22:22.524Z,9.26
2022-10-05T21:24:51.547Z,9.23
2022-10-05T21:27:20.652Z,9.19
2022-10-05T21:29:49.871Z,9.16
2022-10-05T21:32:18.781Z,9.13
2022-10-05T21:34:47.931Z,9.09
2022-10-05T21:37:19.925Z,9.06
2022-10-05T21:39:49.240Z,9.03
2022-10-05T21:42:18.158Z,9.01
2022-10-05T21:44:47.280Z,8.98
2022-10-05T21:47:16.521Z,8.97
2022-10-05T21:49:45.669Z,8.95
2022-10-05T21:52:15.280Z,8.93
2022-10-05T21:54:46.391Z,8.93
2022-10-05T21:57:15.975Z,8.92
2022-10-05T21:59:45.551Z,8.93
2022-10-05T22:02:14.436Z,8.93
2022-10-05T22:04:43.585Z,8.92
2022-10-05T22:07:19.176Z,8.93
2022-10-05T22:09:50.775Z,8.93
2022-10-05T22:12:20.908Z,8.93
2022-10-05T22:14:50.376Z,8.93
2022-10-05T22:17:27.968Z,8.93
2022-10-05T22:19:58.196Z,8.93
2022-10-05T22:22:28.506Z,8.94
2022-10-05T22:24:59.014Z,8.93
2022-10-05T22:27:30.801Z,8.93
2022-10-05T22:30:01.156Z,8.92
2022-10-05T22:32:30.486Z,8.91
2022-10-05T22:34:59.888Z,8.92
2022-10-05T22:37:29.094Z,8.92
2022-10-05T22:39:59.838Z,8.92
2022-10-05T22:42:28.894Z,8.91
2022-10-05T22:44:58.144Z,8.90
2022-10-05T22:47:27.418Z,8.89
2022-10-05T22:49:56.408Z,8.89
2022-10-05T22:52:25.518Z,8.88
2022-10-05T22:54:54.945Z,8.86
2022-10-05T22:57:26.928Z,8.85
2022-10-05T22:59:56.424Z,8.83
2022-10-05T23:02:25.691Z,8.82
2022-10-05T23:04:55.034Z,8.79
2022-10-05T23:07:24.218Z,8.78
2022-10-05T23:09:53.288Z,8.76
2022-10-05T23:12:22.660Z,8.74
2022-10-05T23:14:53.461Z,8.75
2022-10-05T23:17:22.524Z,8.75
2022-10-05T23:19:51.804Z,8.74
2022-10-05T23:22:21.936Z,8.73
2022-10-05T23:24:51.038Z,8.73
2022-10-05T23:27:20.150Z,8.74
2022-10-05T23:29:49.539Z,8.74
2022-10-05T23:32:19.914Z,8.75
2022-10-05T23:34:49.024Z,8.77
2022-10-05T23:37:19.688Z,8.79
2022-10-05T23:39:48.686Z,8.80
2022-10-05T23:42:17.770Z,8.81
2022-10-05T23:44:46.946Z,8.83
2022-10-05T23:47:16.160Z,8.85
2022-10-05T23:49:46.518Z,8.86
2022-10-05T23:52:15.715Z,8.87
2022-10-05T23:54:44.682Z,8.88
2022-10-05T23:57:18.054Z,8.89
2022-10-05T23:59:50.335Z,8.90
